sensor_id;sensor_type;location;lat;lon;timestamp;pressure;altitude;pressure_sealevel;temperature;humidity
61744;BME280;48718;54.994;73.352;2022-07-23T00:01:31;99142.50;;;26.58;40.59
61744;BME280;48718;54.994;73.352;2022-07-23T00:03:58;99156.69;;;26.60;40.32
61744;BME280;48718;54.994;73.352;2022-07-23T00:06:25;99153.94;;;26.60;40.32
61744;BME280;48718;54.994;73.352;2022-07-23T00:08:51;99139.44;;;26.60;40.33
61744;BME280;48718;54.994;73.352;2022-07-23T00:11:18;99137.00;;;26.58;40.34
61744;BME280;48718;54.994;73.352;2022-07-23T00:13:45;99128.47;;;26.60;40.11
61744;BME280;48718;54.994;73.352;2022-07-23T00:16:11;99134.75;;;26.60;40.24
61744;BME280;48718;54.994;73.352;2022-07-23T00:18:38;99140.22;;;26.60;40.10
61744;BME280;48718;54.994;73.352;2022-07-23T00:21:05;99140.22;;;26.60;40.23
61744;BME280;48718;54.994;73.352;2022-07-23T00:23:32;99135.56;;;26.61;40.07
61744;BME280;48718;54.994;73.352;2022-07-23T00:25:58;99121.03;;;26.60;40.10
61744;BME280;48718;54.994;73.352;2022-07-23T00:28:25;99138.63;;;26.59;40.15
61744;BME280;48718;54.994;73.352;2022-07-23T00:30:52;99145.72;;;26.60;40.22
61744;BME280;48718;54.994;73.352;2022-07-23T00:33:18;99148.13;;;26.62;40.20
61744;BME280;48718;54.994;73.352;2022-07-23T00:35:45;99151.19;;;26.60;40.31
61744;BME280;48718;54.994;73.352;2022-07-23T00:38:11;99162.16;;;26.60;40.02
61744;BME280;48718;54.994;73.352;2022-07-23T00:40:41;99165.38;;;26.62;40.29
61744;BME280;48718;54.994;73.352;2022-07-23T00:43:08;99163.78;;;26.61;40.44
61744;BME280;48718;54.994;73.352;2022-07-23T00:45:34;99172.00;;;26.61;40.14
61744;BME280;48718;54.994;73.352;2022-07-23T00:48:01;99158.28;;;26.61;40.39
61744;BME280;48718;54.994;73.352;2022-07-23T00:50:28;99151.19;;;26.60;40.35
61744;BME280;48718;54.994;73.352;2022-07-23T00:52:55;99148.13;;;26.62;40.39
61744;BME280;48718;54.994;73.352;2022-07-23T00:55:22;99130.88;;;26.61;40.07
61744;BME280;48718;54.994;73.352;2022-07-23T00:57:50;99143.78;;;26.61;40.17
61744;BME280;48718;54.994;73.352;2022-07-23T01:00:18;99125.38;;;26.61;40.12
61744;BME280;48718;54.994;73.352;2022-07-23T01:02:51;99129.25;;;26.60;40.04
61744;BME280;48718;54.994;73.352;2022-07-23T01:05:27;99129.25;;;26.60;39.83
61744;BME280;48718;54.994;73.352;2022-07-23T01:07:54;99137.97;;;26.62;39.77
61744;BME280;48718;54.994;73.352;2022-07-23T01:10:20;99128.13;;;26.61;39.96
61744;BME280;48718;54.994;73.352;2022-07-23T01:13:00;99132.47;;;26.62;40.06
61744;BME280;48718;54.994;73.352;2022-07-23T01:15:27;99130.06;;;26.61;40.07
61744;BME280;48718;54.994;73.352;2022-07-23T01:18:00;99133.28;;;26.63;39.85
61744;BME280;48718;54.994;73.352;2022-07-23T01:20:27;99133.28;;;26.63;39.85
61744;BME280;48718;54.994;73.352;2022-07-23T01:22:54;99128.59;;;26.63;39.83
61744;BME280;48718;54.994;73.352;2022-07-23T01:25:22;99128.59;;;26.63;40.12
61744;BME280;48718;54.994;73.352;2022-07-23T01:27:54;99120.38;;;26.63;39.96
61744;BME280;48718;54.994;73.352;2022-07-23T01:30:21;99118.75;;;26.62;39.97
61744;BME280;48718;54.994;73.352;2022-07-23T01:32:57;99123.94;;;26.64;39.76
61744;BME280;48718;54.994;73.352;2022-07-23T01:35:23;99120.38;;;26.63;39.97
61744;BME280;48718;54.994;73.352;2022-07-23T01:37:58;99117.63;;;26.63;39.80
61744;BME280;48718;54.994;73.352;2022-07-23T01:40:24;99117.63;;;26.63;39.81
61744;BME280;48718;54.994;73.352;2022-07-23T01:42:51;99117.63;;;26.63;39.97
61744;BME280;48718;54.994;73.352;2022-07-23T01:45:27;99128.59;;;26.63;39.92
61744;BME280;48718;54.994;73.352;2022-07-23T01:47:54;99128.59;;;26.63;39.82
61744;BME280;48718;54.994;73.352;2022-07-23T01:50:21;99134.09;;;26.63;39.87
61744;BME280;48718;54.994;73.352;2022-07-23T01:52:57;99141.19;;;26.64;39.91
61744;BME280;48718;54.994;73.352;2022-07-23T01:55:24;99142.78;;;26.65;39.72
61744;BME280;48718;54.994;73.352;2022-07-23T01:57:50;99134.91;;;26.64;39.68
61744;BME280;48718;54.994;73.352;2022-07-23T02:00:17;99137.28;;;26.65;39.78
61744;BME280;48718;54.994;73.352;2022-07-23T02:02:44;99149.41;;;26.64;39.69
61744;BME280;48718;54.994;73.352;2022-07-23T02:05:10;99137.28;;;26.65;39.68
61744;BME280;48718;54.994;73.352;2022-07-23T02:07:37;99140.38;;;26.64;39.67
61744;BME280;48718;54.994;73.352;2022-07-23T02:10:04;99150.53;;;26.63;40.19
61744;BME280;48718;54.994;73.352;2022-07-23T02:12:31;99143.44;;;26.62;40.11
61744;BME280;48718;54.994;73.352;2022-07-23T02:14:57;99141.84;;;26.61;39.42
61744;BME280;48718;54.994;73.352;2022-07-23T02:17:24;99145.25;;;26.58;38.94
61744;BME280;48718;54.994;73.352;2022-07-23T02:19:50;99144.75;;;26.56;38.54
61744;BME280;48718;54.994;73.352;2022-07-23T02:22:17;99147.84;;;26.55;38.54
61744;BME280;48718;54.994;73.352;2022-07-23T02:24:43;99138.03;;;26.54;38.29
61744;BME280;48718;54.994;73.352;2022-07-23T02:27:10;99142.69;;;26.53;37.69
61744;BME280;48718;54.994;73.352;2022-07-23T02:29:36;99133.53;;;26.49;37.73
61744;BME280;48718;54.994;73.352;2022-07-23T02:32:03;99139.69;;;26.46;37.18
61744;BME280;48718;54.994;73.352;2022-07-23T02:34:30;99136.47;;;26.44;37.09
61744;BME280;48718;54.994;73.352;2022-07-23T02:37:01;99131.66;;;26.41;36.95
61744;BME280;48718;54.994;73.352;2022-07-23T02:39:28;99144.06;;;26.38;36.63
61744;BME280;48718;54.994;73.352;2022-07-23T02:41:55;99140.84;;;26.36;36.32
61744;BME280;48718;54.994;73.352;2022-07-23T02:44:21;99149.41;;;26.34;36.30
61744;BME280;48718;54.994;73.352;2022-07-23T02:46:53;99141.84;;;26.31;36.40
61744;BME280;48718;54.994;73.352;2022-07-23T02:49:29;99142.97;;;26.30;36.48
61744;BME280;48718;54.994;73.352;2022-07-23T02:51:55;99142.50;;;26.28;35.89
61744;BME280;48718;54.994;73.352;2022-07-23T02:54:26;99132.19;;;26.25;35.74
61744;BME280;48718;54.994;73.352;2022-07-23T02:56:53;99137.22;;;26.23;35.34
61744;BME280;48718;54.994;73.352;2022-07-23T02:59:19;99139.47;;;26.21;35.54
61744;BME280;48718;54.994;73.352;2022-07-23T03:01:46;99137.88;;;26.20;35.72
61744;BME280;48718;54.994;73.352;2022-07-23T03:04:13;99143.34;;;26.20;35.59
61744;BME280;48718;54.994;73.352;2022-07-23T03:06:39;99136.25;;;26.19;35.58
61744;BME280;48718;54.994;73.352;2022-07-23T03:09:08;99144.47;;;26.19;35.65
61744;BME280;48718;54.994;73.352;2022-07-23T03:11:35;99152.69;;;26.19;35.73
61744;BME280;48718;54.994;73.352;2022-07-23T03:14:07;99151.09;;;26.18;35.52
61744;BME280;48718;54.994;73.352;2022-07-23T03:16:37;99142.09;;;26.17;35.18
61744;BME280;48718;54.994;73.352;2022-07-23T03:19:03;99149.47;;;26.17;35.47
61744;BME280;48718;54.994;73.352;2022-07-23T03:21:30;99144.00;;;26.17;35.47
61744;BME280;48718;54.994;73.352;2022-07-23T03:23:56;99145.59;;;26.18;35.40
61744;BME280;48718;54.994;73.352;2022-07-23T03:26:23;99147.88;;;26.16;35.45
61744;BME280;48718;54.994;73.352;2022-07-23T03:29:02;99150.13;;;26.14;35.21
61744;BME280;48718;54.994;73.352;2022-07-23T03:31:30;99138.38;;;26.13;35.13
61744;BME280;48718;54.994;73.352;2022-07-23T03:33:58;99139.19;;;26.14;35.59
61744;BME280;48718;54.994;73.352;2022-07-23T03:36:25;99136.75;;;26.12;35.47
61744;BME280;48718;54.994;73.352;2022-07-23T03:38:52;99137.59;;;26.13;35.57
61744;BME280;48718;54.994;73.352;2022-07-23T03:41:29;99139.19;;;26.14;35.39
61744;BME280;48718;54.994;73.352;2022-07-23T03:43:56;99145.81;;;26.13;35.46
61744;BME280;48718;54.994;73.352;2022-07-23T03:46:22;99150.13;;;26.14;35.59
61744;BME280;48718;54.994;73.352;2022-07-23T03:48:49;99143.06;;;26.13;35.53
61744;BME280;48718;54.994;73.352;2022-07-23T03:51:25;99141.13;;;26.13;35.67
61744;BME280;48718;54.994;73.352;2022-07-23T03:53:52;99144.66;;;26.14;35.62
61744;BME280;48718;54.994;73.352;2022-07-23T03:56:18;99141.91;;;26.14;35.61
61744;BME280;48718;54.994;73.352;2022-07-23T03:58:45;99139.19;;;26.14;35.68
61744;BME280;48718;54.994;73.352;2022-07-23T04:01:11;99138.03;;;26.15;35.66
61744;BME280;48718;54.994;73.352;2022-07-23T04:03:38;99143.53;;;26.15;35.60
61744;BME280;48718;54.994;73.352;2022-07-23T04:06:05;99144.66;;;26.14;35.61
61744;BME280;48718;54.994;73.352;2022-07-23T04:08:32;99145.81;;;26.13;35.66
61744;BME280;48718;54.994;73.352;2022-07-23T04:10:59;99144.50;;;26.10;35.83
61744;BME280;48718;54.994;73.352;2022-07-23T04:13:26;99137.88;;;26.11;35.66
61744;BME280;48718;54.994;73.352;2022-07-23T04:15:59;99140.97;;;26.10;35.80
61744;BME280;48718;54.994;73.352;2022-07-23T04:18:25;99131.91;;;26.09;36.07
61744;BME280;48718;54.994;73.352;2022-07-23T04:20:52;99137.41;;;26.09;35.92
61744;BME280;48718;54.994;73.352;2022-07-23T04:23:19;99138.22;;;26.10;36.07
61744;BME280;48718;54.994;73.352;2022-07-23T04:25:45;99129.19;;;26.09;36.04
61744;BME280;48718;54.994;73.352;2022-07-23T04:28:12;99125.66;;;26.09;36.23
61744;BME280;48718;54.994;73.352;2022-07-23T04:30:39;99124.03;;;26.08;36.18
61744;BME280;48718;54.994;73.352;2022-07-23T04:33:05;99136.63;;;26.09;36.17
61744;BME280;48718;54.994;73.352;2022-07-23T04:35:34;99129.53;;;26.08;36.18
61744;BME280;48718;54.994;73.352;2022-07-23T04:38:06;99119.34;;;26.08;36.22
61744;BME280;48718;54.994;73.352;2022-07-23T04:40:33;99126.78;;;26.08;36.23
61744;BME280;48718;54.994;73.352;2022-07-23T04:43:05;99113.41;;;26.06;36.20
61744;BME280;48718;54.994;73.352;2022-07-23T04:45:31;99115.00;;;26.07;36.22
61744;BME280;48718;54.994;73.352;2022-07-23T04:48:00;99113.09;;;26.08;36.38
61744;BME280;48718;54.994;73.352;2022-07-23T04:50:27;99115.81;;;26.08;36.42
61744;BME280;48718;54.994;73.352;2022-07-23T04:53:04;99120.47;;;26.07;36.64
61744;BME280;48718;54.994;73.352;2022-07-23T04:55:41;99113.09;;;26.08;36.38
61744;BME280;48718;54.994;73.352;2022-07-23T04:58:12;99102.13;;;26.08;36.58
61744;BME280;48718;54.994;73.352;2022-07-23T05:00:39;99109.06;;;26.05;36.78
61744;BME280;48718;54.994;73.352;2022-07-23T05:03:06;99109.41;;;26.03;36.73
61744;BME280;48718;54.994;73.352;2022-07-23T05:05:37;99105.03;;;26.02;36.64
61744;BME280;48718;54.994;73.352;2022-07-23T05:08:13;99108.91;;;26.01;36.79
61744;BME280;48718;54.994;73.352;2022-07-23T05:10:40;99097.13;;;26.01;36.90
61744;BME280;48718;54.994;73.352;2022-07-23T05:13:07;99099.56;;;26.02;36.87
61744;BME280;48718;54.994;73.352;2022-07-23T05:15:33;99102.63;;;26.01;36.94
61744;BME280;48718;54.994;73.352;2022-07-23T05:18:00;99094.09;;;26.02;36.83
61744;BME280;48718;54.994;73.352;2022-07-23T05:20:27;99099.56;;;26.02;37.02
61744;BME280;48718;54.994;73.352;2022-07-23T05:22:53;99097.97;;;26.01;37.02
61744;BME280;48718;54.994;73.352;2022-07-23T05:25:26;99095.69;;;26.03;37.04
61744;BME280;48718;54.994;73.352;2022-07-23T05:27:53;99094.88;;;26.03;36.84
61744;BME280;48718;54.994;73.352;2022-07-23T05:30:19;99101.16;;;26.03;36.90
61744;BME280;48718;54.994;73.352;2022-07-23T05:32:56;99110.19;;;26.04;37.03
61744;BME280;48718;54.994;73.352;2022-07-23T05:35:23;99112.13;;;26.03;36.99
61744;BME280;48718;54.994;73.352;2022-07-23T05:37:49;99109.69;;;26.02;37.02
61744;BME280;48718;54.994;73.352;2022-07-23T05:40:19;99110.53;;;26.02;36.95
61744;BME280;48718;54.994;73.352;2022-07-23T05:42:45;99111.66;;;26.01;37.00
61744;BME280;48718;54.994;73.352;2022-07-23T05:45:12;99103.44;;;26.01;37.00
61744;BME280;48718;54.994;73.352;2022-07-23T05:47:43;99106.19;;;26.01;37.03
61744;BME280;48718;54.994;73.352;2022-07-23T05:50:17;99100.22;;;25.99;37.37
61744;BME280;48718;54.994;73.352;2022-07-23T05:52:44;99098.63;;;25.98;37.38
61744;BME280;48718;54.994;73.352;2022-07-23T05:55:11;99097.78;;;25.98;37.47
61744;BME280;48718;54.994;73.352;2022-07-23T05:57:39;99087.66;;;25.98;37.86
61744;BME280;48718;54.994;73.352;2022-07-23T06:00:07;99092.47;;;26.01;38.25
61744;BME280;48718;54.994;73.352;2022-07-23T06:02:34;99101.16;;;26.03;39.02
61744;BME280;48718;54.994;73.352;2022-07-23T06:05:01;99091.00;;;26.04;38.69
61744;BME280;48718;54.994;73.352;2022-07-23T06:07:27;99093.44;;;26.05;39.53
61744;BME280;48718;54.994;73.352;2022-07-23T06:09:54;99085.69;;;26.08;39.89
61744;BME280;48718;54.994;73.352;2022-07-23T06:12:31;99082.59;;;26.09;39.90
61744;BME280;48718;54.994;73.352;2022-07-23T06:14:58;99085.03;;;26.11;39.66
61744;BME280;48718;54.994;73.352;2022-07-23T06:17:25;99086.16;;;26.10;39.48
61744;BME280;48718;54.994;73.352;2022-07-23T06:19:52;99085.81;;;26.11;39.26
61744;BME280;48718;54.994;73.352;2022-07-23T06:22:19;99090.50;;;26.11;39.42
61744;BME280;48718;54.994;73.352;2022-07-23T06:24:46;99090.50;;;26.11;39.21
61744;BME280;48718;54.994;73.352;2022-07-23T06:27:13;99089.69;;;26.10;39.04
61744;BME280;48718;54.994;73.352;2022-07-23T06:29:40;99082.59;;;26.09;38.86
61744;BME280;48718;54.994;73.352;2022-07-23T06:32:07;99081.81;;;26.09;38.93
61744;BME280;48718;54.994;73.352;2022-07-23T06:34:34;99077.13;;;26.09;39.05
61744;BME280;48718;54.994;73.352;2022-07-23T06:37:01;99087.59;;;26.07;38.36
61744;BME280;48718;54.994;73.352;2022-07-23T06:39:28;99072.28;;;26.06;38.18
61744;BME280;48718;54.994;73.352;2022-07-23T06:41:54;99069.91;;;26.04;37.81
61744;BME280;48718;54.994;73.352;2022-07-23T06:44:21;99069.25;;;26.08;37.98
61744;BME280;48718;54.994;73.352;2022-07-23T06:46:48;99069.25;;;26.08;38.07
61744;BME280;48718;54.994;73.352;2022-07-23T06:49:19;99059.88;;;26.09;37.98
61744;BME280;48718;54.994;73.352;2022-07-23T06:51:46;99062.28;;;26.10;37.65
61744;BME280;48718;54.994;73.352;2022-07-23T06:54:14;99065.03;;;26.10;37.95
61744;BME280;48718;54.994;73.352;2022-07-23T06:56:40;99043.44;;;26.09;37.96
61744;BME280;48718;54.994;73.352;2022-07-23T06:59:11;99047.78;;;26.10;37.74
61744;BME280;48718;54.994;73.352;2022-07-23T07:01:47;99043.44;;;26.09;37.50
61744;BME280;48718;54.994;73.352;2022-07-23T07:04:13;99032.50;;;26.09;37.52
61744;BME280;48718;54.994;73.352;2022-07-23T07:06:40;99033.63;;;26.08;36.95
61744;BME280;48718;54.994;73.352;2022-07-23T07:09:07;99036.38;;;26.08;37.25
61744;BME280;48718;54.994;73.352;2022-07-23T07:11:33;99036.38;;;26.08;36.98
61744;BME280;48718;54.994;73.352;2022-07-23T07:14:01;99038.63;;;26.05;36.96
61744;BME280;48718;54.994;73.352;2022-07-23T07:16:37;99036.69;;;26.06;36.66
61744;BME280;48718;54.994;73.352;2022-07-23T07:19:04;99035.41;;;26.03;35.96
61744;BME280;48718;54.994;73.352;2022-07-23T07:21:30;99025.59;;;26.02;35.80
61744;BME280;48718;54.994;73.352;2022-07-23T07:23:57;99029.94;;;26.03;35.46
61744;BME280;48718;54.994;73.352;2022-07-23T07:26:24;99026.72;;;26.01;35.26
61744;BME280;48718;54.994;73.352;2022-07-23T07:28:51;99015.75;;;26.01;35.23
61744;BME280;48718;54.994;73.352;2022-07-23T07:31:27;99024.44;;;26.03;35.30
61744;BME280;48718;54.994;73.352;2022-07-23T07:33:54;99029.94;;;26.03;35.21
61744;BME280;48718;54.994;73.352;2022-07-23T07:36:27;99013.50;;;26.03;35.22
61744;BME280;48718;54.994;73.352;2022-07-23T07:38:54;99011.22;;;26.05;35.31
61744;BME280;48718;54.994;73.352;2022-07-23T07:41:25;99003.47;;;26.08;35.26
61744;BME280;48718;54.994;73.352;2022-07-23T07:43:52;99013.97;;;26.05;35.23
61744;BME280;48718;54.994;73.352;2022-07-23T07:46:19;98993.19;;;26.04;35.15
61744;BME280;48718;54.994;73.352;2022-07-23T07:48:45;99000.25;;;26.05;35.38
61744;BME280;48718;54.994;73.352;2022-07-23T07:51:14;98980.63;;;26.03;35.60
61744;BME280;48718;54.994;73.352;2022-07-23T07:53:51;98988.84;;;26.03;35.72
61744;BME280;48718;54.994;73.352;2022-07-23T07:56:28;98976.75;;;26.04;35.70
61744;BME280;48718;54.994;73.352;2022-07-23T07:58:55;98983.81;;;26.05;35.76
61744;BME280;48718;54.994;73.352;2022-07-23T08:01:21;98990.25;;;26.10;35.50
61744;BME280;48718;54.994;73.352;2022-07-23T08:03:48;98997.34;;;26.11;35.60
61744;BME280;48718;54.994;73.352;2022-07-23T08:06:15;98985.25;;;26.12;35.58
61744;BME280;48718;54.994;73.352;2022-07-23T08:08:42;98987.97;;;26.12;35.28
61744;BME280;48718;54.994;73.352;2022-07-23T08:11:09;98984.13;;;26.13;35.59
61744;BME280;48718;54.994;73.352;2022-07-23T08:13:35;98977.03;;;26.12;35.53
61744;BME280;48718;54.994;73.352;2022-07-23T08:16:02;98982.50;;;26.12;35.81
61744;BME280;48718;54.994;73.352;2022-07-23T08:18:29;98991.50;;;26.12;35.71
61744;BME280;48718;54.994;73.352;2022-07-23T08:20:55;98980.91;;;26.11;36.16
61744;BME280;48718;54.994;73.352;2022-07-23T08:23:22;98969.00;;;26.06;36.70
61744;BME280;48718;54.994;73.352;2022-07-23T08:25:49;98980.63;;;26.03;36.97
61744;BME280;48718;54.994;73.352;2022-07-23T08:28:16;98966.91;;;26.03;37.13
61744;BME280;48718;54.994;73.352;2022-07-23T08:30:45;98959.63;;;26.08;36.71
61744;BME280;48718;54.994;73.352;2022-07-23T08:33:14;98961.72;;;26.11;36.52
61744;BME280;48718;54.994;73.352;2022-07-23T08:35:47;98955.09;;;26.12;36.71
61744;BME280;48718;54.994;73.352;2022-07-23T08:38:25;98957.53;;;26.13;36.68
61744;BME280;48718;54.994;73.352;2022-07-23T08:40:54;98961.53;;;26.16;36.74
61744;BME280;48718;54.994;73.352;2022-07-23T08:43:26;98959.25;;;26.18;36.68
61744;BME280;48718;54.994;73.352;2022-07-23T08:45:55;98959.25;;;26.18;36.59
61744;BME280;48718;54.994;73.352;2022-07-23T08:48:28;98965.59;;;26.10;36.76
61744;BME280;48718;54.994;73.352;2022-07-23T08:50:58;98963.09;;;25.96;36.97
61744;BME280;48718;54.994;73.352;2022-07-23T08:53:33;98967.63;;;25.91;37.04
61744;BME280;48718;54.994;73.352;2022-07-23T08:56:03;98965.22;;;25.90;36.92
61744;BME280;48718;54.994;73.352;2022-07-23T08:58:31;98954.91;;;25.87;37.18
61744;BME280;48718;54.994;73.352;2022-07-23T09:00:58;98955.88;;;25.91;37.02
61744;BME280;48718;54.994;73.352;2022-07-23T09:03:30;98952.16;;;25.96;36.85
61744;BME280;48718;54.994;73.352;2022-07-23T09:05:58;98943.13;;;25.95;36.69
61744;BME280;48718;54.994;73.352;2022-07-23T09:08:42;98943.13;;;25.95;36.81
61744;BME280;48718;54.994;73.352;2022-07-23T09:11:15;98946.78;;;25.99;36.69
61744;BME280;48718;54.994;73.352;2022-07-23T09:13:47;98942.25;;;26.03;36.47
61744;BME280;48718;54.994;73.352;2022-07-23T09:16:17;98940.47;;;26.08;36.45
61744;BME280;48718;54.994;73.352;2022-07-23T09:18:49;98937.06;;;26.11;36.29
61744;BME280;48718;54.994;73.352;2022-07-23T09:21:36;98928.47;;;26.12;36.13
61744;BME280;48718;54.994;73.352;2022-07-23T09:26:46;98932.50;;;26.15;35.94
61744;BME280;48718;54.994;73.352;2022-07-23T09:29:15;98944.59;;;26.14;36.13
61744;BME280;48718;54.994;73.352;2022-07-23T09:34:35;99034.09;;;26.10;36.97
61744;BME280;48718;54.994;73.352;2022-07-23T09:37:15;99001.16;;;25.88;38.01
61744;BME280;48718;54.994;73.352;2022-07-23T09:39:43;98992.47;;;25.86;39.37
61744;BME280;48718;54.994;73.352;2022-07-23T09:42:19;98995.28;;;25.77;40.41
61744;BME280;48718;54.994;73.352;2022-07-23T09:44:48;98986.09;;;25.73;41.02
61744;BME280;48718;54.994;73.352;2022-07-23T09:47:15;98973.38;;;25.69;41.75
61744;BME280;48718;54.994;73.352;2022-07-23T09:50:19;98971.19;;;25.62;42.14
61744;BME280;48718;54.994;73.352;2022-07-23T09:52:48;98957.66;;;25.57;42.14
61744;BME280;48718;54.994;73.352;2022-07-23T09:55:16;98943.84;;;25.53;42.98
61744;BME280;48718;54.994;73.352;2022-07-23T09:57:48;98944.63;;;25.54;42.97
61744;BME280;48718;54.994;73.352;2022-07-23T10:00:27;98943.97;;;25.57;42.86
61744;BME280;48718;54.994;73.352;2022-07-23T10:02:54;98947.19;;;25.59;43.03
61744;BME280;48718;54.994;73.352;2022-07-23T10:05:23;98954.09;;;25.65;43.05
61744;BME280;48718;54.994;73.352;2022-07-23T10:07:51;98948.09;;;25.72;43.59
61744;BME280;48718;54.994;73.352;2022-07-23T10:10:18;98958.38;;;25.75;43.19
61744;BME280;48718;54.994;73.352;2022-07-23T10:12:46;98954.19;;;25.77;43.24
61744;BME280;48718;54.994;73.352;2022-07-23T10:15:31;98958.66;;;25.82;43.10
61744;BME280;48718;54.994;73.352;2022-07-23T10:17:58;98954.91;;;25.87;42.83
61744;BME280;48718;54.994;73.352;2022-07-23T10:20:25;98956.69;;;25.91;42.61
61744;BME280;48718;54.994;73.352;2022-07-23T10:26:24;98965.59;;;25.80;40.19
61744;BME280;48718;54.994;73.352;2022-07-23T10:32:00;98954.41;;;25.64;38.81
61744;BME280;48718;54.994;73.352;2022-07-23T10:34:41;98946.19;;;25.64;38.81
61744;BME280;48718;54.994;73.352;2022-07-23T10:37:25;98948.59;;;25.65;38.66
61744;BME280;48718;54.994;73.352;2022-07-23T10:40:17;98952.13;;;25.66;38.67
61744;BME280;48718;54.994;73.352;2022-07-23T10:42:45;98955.69;;;25.66;38.62
61744;BME280;48718;54.994;73.352;2022-07-23T10:47:54;98959.09;;;25.63;37.44
61744;BME280;48718;54.994;73.352;2022-07-23T10:50:28;98952.47;;;25.64;37.08
61744;BME280;48718;54.994;73.352;2022-07-23T10:58:05;98961.16;;;25.66;36.57
61744;BME280;48718;54.994;73.352;2022-07-23T11:00:33;98947.66;;;25.61;35.76
61744;BME280;48718;54.994;73.352;2022-07-23T11:03:03;98946.25;;;25.55;35.71
61744;BME280;48718;54.994;73.352;2022-07-23T11:05:44;98956.41;;;25.45;35.35
61744;BME280;48718;54.994;73.352;2022-07-23T11:08:13;98946.41;;;25.50;35.60
61744;BME280;48718;54.994;73.352;2022-07-23T11:10:53;98955.09;;;25.52;35.50
61744;BME280;48718;54.994;73.352;2022-07-23T11:34:55;98985.16;;;25.22;36.80
61744;BME280;48718;54.994;73.352;2022-07-23T11:37:38;98974.53;;;25.11;37.35
61744;BME280;48718;54.994;73.352;2022-07-23T11:40:09;98989.06;;;25.03;37.11
61744;BME280;48718;54.994;73.352;2022-07-23T11:42:58;98973.00;;;24.93;35.83
61744;BME280;48718;54.994;73.352;2022-07-23T11:45:56;98995.53;;;24.81;35.06
61744;BME280;48718;54.994;73.352;2022-07-23T11:48:25;98981.03;;;24.80;35.24
61744;BME280;48718;54.994;73.352;2022-07-23T11:50:55;98981.53;;;24.82;34.85
61744;BME280;48718;54.994;73.352;2022-07-23T11:53:30;98967.53;;;24.93;34.73
61744;BME280;48718;54.994;73.352;2022-07-23T11:56:23;98968.47;;;24.97;34.38
61744;BME280;48718;54.994;73.352;2022-07-23T11:58:54;98972.66;;;25.03;34.43
61744;BME280;48718;54.994;73.352;2022-07-23T12:01:22;98979.09;;;25.07;34.25
61744;BME280;48718;54.994;73.352;2022-07-23T12:03:51;98969.72;;;25.08;33.79
61744;BME280;48718;54.994;73.352;2022-07-23T12:06:18;98959.25;;;25.10;33.70
61744;BME280;48718;54.994;73.352;2022-07-23T12:08:44;98964.56;;;25.15;33.47
61744;BME280;48718;54.994;73.352;2022-07-23T12:11:21;98967.78;;;25.17;33.39
61744;BME280;48718;54.994;73.352;2022-07-23T12:13:56;98974.72;;;25.15;32.79
61744;BME280;48718;54.994;73.352;2022-07-23T12:16:28;98965.38;;;25.16;33.08
61744;BME280;48718;54.994;73.352;2022-07-23T12:18:56;98971.63;;;25.16;33.03
61744;BME280;48718;54.994;73.352;2022-07-23T12:21:32;98978.25;;;25.15;33.19
61744;BME280;48718;54.994;73.352;2022-07-23T12:24:06;98968.28;;;25.11;33.05
61744;BME280;48718;54.994;73.352;2022-07-23T12:26:33;98962.00;;;25.10;32.90
61744;BME280;48718;54.994;73.352;2022-07-23T12:29:00;98968.25;;;25.20;32.84
61744;BME280;48718;54.994;73.352;2022-07-23T12:31:27;98965.16;;;25.30;32.69
61744;BME280;48718;54.994;73.352;2022-07-23T12:33:54;98965.59;;;25.41;32.51
61744;BME280;48718;54.994;73.352;2022-07-23T12:36:36;98963.00;;;25.53;32.04
61744;BME280;48718;54.994;73.352;2022-07-23T12:39:03;98974.56;;;25.59;31.98
61744;BME280;48718;54.994;73.352;2022-07-23T12:41:51;98972.13;;;25.66;31.77
61744;BME280;48718;54.994;73.352;2022-07-23T12:44:18;98977.41;;;25.71;31.72
61744;BME280;48718;54.994;73.352;2022-07-23T12:46:50;98977.88;;;25.73;31.71
61744;BME280;48718;54.994;73.352;2022-07-23T12:49:28;98978.06;;;25.68;31.96
61744;BME280;48718;54.994;73.352;2022-07-23T12:51:55;98972.13;;;25.66;32.08
61744;BME280;48718;54.994;73.352;2022-07-23T12:54:29;98973.72;;;25.67;32.13
61744;BME280;48718;54.994;73.352;2022-07-23T12:56:55;98971.47;;;25.69;32.24
61744;BME280;48718;54.994;73.352;2022-07-23T12:59:22;98985.63;;;25.71;32.21
61744;BME280;48718;54.994;73.352;2022-07-23T13:01:56;98970.81;;;25.72;32.34
61744;BME280;48718;54.994;73.352;2022-07-23T13:04:35;99005.28;;;25.73;32.32
61744;BME280;48718;54.994;73.352;2022-07-23T13:07:02;99003.94;;;25.80;32.33
61744;BME280;48718;54.994;73.352;2022-07-23T13:09:30;98987.78;;;25.87;32.14
61744;BME280;48718;54.994;73.352;2022-07-23T13:11:58;98983.44;;;25.86;32.07
61744;BME280;48718;54.994;73.352;2022-07-23T13:14:26;98991.53;;;25.82;32.15
61744;BME280;48718;54.994;73.352;2022-07-23T13:16:53;98990.06;;;25.85;32.35
61744;BME280;48718;54.994;73.352;2022-07-23T13:19:20;98993.94;;;25.84;32.48
61744;BME280;48718;54.994;73.352;2022-07-23T13:21:49;98993.94;;;25.84;32.50
61744;BME280;48718;54.994;73.352;2022-07-23T13:24:16;98991.06;;;25.80;32.79
61744;BME280;48718;54.994;73.352;2022-07-23T13:26:43;98995.28;;;25.77;32.56
61744;BME280;48718;54.994;73.352;2022-07-23T13:29:11;98988.97;;;25.77;32.86
61744;BME280;48718;54.994;73.352;2022-07-23T13:31:38;99004.63;;;25.76;32.99
61744;BME280;48718;54.994;73.352;2022-07-23T13:34:06;98991.59;;;25.73;32.84
61744;BME280;48718;54.994;73.352;2022-07-23T13:36:33;98980.81;;;25.68;32.92
61744;BME280;48718;54.994;73.352;2022-07-23T13:39:00;99003.50;;;25.69;32.97
61744;BME280;48718;54.994;73.352;2022-07-23T13:41:26;98981.75;;;25.72;33.05
61744;BME280;48718;54.994;73.352;2022-07-23T13:43:53;98986.72;;;25.79;32.95